Reedsville, Ohio
Current Conditions -  °F | °C
As of 9:53 AM on Wednesday 26 Nov 2014 (Local Time) from KPKB Reporting Station
Moderate Snow Moderate Snow  
Wind Chill: 33°   Ceiling: 2400
Heat Index: 33°   Visibility: 1.5mi
Dew Point: 29°   Wind: 3mph
Humidity: 85%   Direction: 20°NNE
Pressure: 30.11"   Gusts: NA
Location:  39.12°N, 81.75°W
Report Text: KPKB 261453Z 02003KT 1 1/2SM SN BR OVC024 01/M02 A3011 RMK AO2 SNB11 SLP204 P0001 60001 T00061017 51013
Loading
Personal Weather Stations






























Interactive Weather Map New forecast layout! Learn more

10-Day Weather Forecast

Advertisements
Track Severe Weather on mobile